sensor_id;sensor_type;location;lat;lon;timestamp;P1;durP1;ratioP1;P2;durP2;ratioP2
20832;SDS011;56075;51.264;7.150;2023-04-12T00:01:17;8.13;;;1.35;;
20832;SDS011;56075;51.264;7.150;2023-04-12T00:03:48;6.80;;;1.20;;
20832;SDS011;56075;51.264;7.150;2023-04-12T00:06:19;5.70;;;1.02;;
20832;SDS011;56075;51.264;7.150;2023-04-12T00:09:00;9.00;;;1.20;;
20832;SDS011;56075;51.264;7.150;2023-04-12T00:11:31;8.27;;;1.33;;
20832;SDS011;56075;51.264;7.150;2023-04-12T00:14:03;5.65;;;1.10;;
20832;SDS011;56075;51.264;7.150;2023-04-12T00:16:34;5.53;;;1.40;;
20832;SDS011;56075;51.264;7.150;2023-04-12T00:19:06;6.20;;;1.20;;
20832;SDS011;56075;51.264;7.150;2023-04-12T00:21:38;4.35;;;1.10;;
20832;SDS011;56075;51.264;7.150;2023-04-12T00:24:09;6.90;;;1.10;;
20832;SDS011;56075;51.264;7.150;2023-04-12T00:26:40;6.25;;;1.10;;
20832;SDS011;56075;51.264;7.150;2023-04-12T00:29:11;6.60;;;1.10;;
20832;SDS011;56075;51.264;7.150;2023-04-12T00:31:42;3.58;;;1.20;;
20832;SDS011;56075;51.264;7.150;2023-04-12T00:34:13;7.57;;;1.20;;
20832;SDS011;56075;51.264;7.150;2023-04-12T00:36:45;8.48;;;1.35;;
20832;SDS011;56075;51.264;7.150;2023-04-12T00:39:16;6.82;;;1.27;;
20832;SDS011;56075;51.264;7.150;2023-04-12T00:41:47;5.37;;;1.00;;
20832;SDS011;56075;51.264;7.150;2023-04-12T00:44:18;4.83;;;1.40;;
20832;SDS011;56075;51.264;7.150;2023-04-12T00:46:49;7.20;;;1.20;;
20832;SDS011;56075;51.264;7.150;2023-04-12T00:49:21;15.23;;;1.50;;
20832;SDS011;56075;51.264;7.150;2023-04-12T00:51:52;5.70;;;1.20;;
20832;SDS011;56075;51.264;7.150;2023-04-12T00:54:23;6.97;;;1.20;;
20832;SDS011;56075;51.264;7.150;2023-04-12T00:56:55;5.20;;;1.30;;
20832;SDS011;56075;51.264;7.150;2023-04-12T00:59:30;7.23;;;1.20;;
20832;SDS011;56075;51.264;7.150;2023-04-12T01:02:01;5.53;;;0.97;;
20832;SDS011;56075;51.264;7.150;2023-04-12T01:04:32;9.70;;;1.43;;
20832;SDS011;56075;51.264;7.150;2023-04-12T01:15:17;8.67;;;1.13;;
20832;SDS011;56075;51.264;7.150;2023-04-12T01:18:00;4.73;;;1.20;;
20832;SDS011;56075;51.264;7.150;2023-04-12T01:20:50;5.90;;;1.33;;
20832;SDS011;56075;51.264;7.150;2023-04-12T01:28:45;5.10;;;1.23;;
20832;SDS011;56075;51.264;7.150;2023-04-12T01:31:19;6.47;;;1.30;;
20832;SDS011;56075;51.264;7.150;2023-04-12T01:33:54;9.03;;;1.50;;
20832;SDS011;56075;51.264;7.150;2023-04-12T01:36:27;6.27;;;1.30;;
20832;SDS011;56075;51.264;7.150;2023-04-12T01:39:00;4.50;;;1.00;;
20832;SDS011;56075;51.264;7.150;2023-04-12T01:41:37;5.50;;;1.50;;
20832;SDS011;56075;51.264;7.150;2023-04-12T01:44:15;6.67;;;1.20;;
20832;SDS011;56075;51.264;7.150;2023-04-12T01:46:47;8.43;;;1.50;;
20832;SDS011;56075;51.264;7.150;2023-04-12T01:49:18;8.43;;;1.63;;
20832;SDS011;56075;51.264;7.150;2023-04-12T01:54:37;6.53;;;1.50;;
20832;SDS011;56075;51.264;7.150;2023-04-12T01:57:13;6.33;;;1.43;;
20832;SDS011;56075;51.264;7.150;2023-04-12T01:59:45;6.17;;;1.40;;
20832;SDS011;56075;51.264;7.150;2023-04-12T02:02:18;8.73;;;1.40;;
20832;SDS011;56075;51.264;7.150;2023-04-12T02:04:49;9.10;;;1.50;;
20832;SDS011;56075;51.264;7.150;2023-04-12T02:07:24;5.80;;;1.40;;
20832;SDS011;56075;51.264;7.150;2023-04-12T02:09:55;7.43;;;1.57;;
20832;SDS011;56075;51.264;7.150;2023-04-12T02:12:28;7.00;;;1.57;;
20832;SDS011;56075;51.264;7.150;2023-04-12T02:14:59;6.23;;;1.30;;
20832;SDS011;56075;51.264;7.150;2023-04-12T02:17:30;7.60;;;1.40;;
20832;SDS011;56075;51.264;7.150;2023-04-12T02:20:02;5.30;;;1.50;;
20832;SDS011;56075;51.264;7.150;2023-04-12T02:22:39;9.40;;;1.70;;
20832;SDS011;56075;51.264;7.150;2023-04-12T02:25:10;7.83;;;1.40;;
20832;SDS011;56075;51.264;7.150;2023-04-12T02:27:43;5.53;;;1.30;;
20832;SDS011;56075;51.264;7.150;2023-04-12T02:30:16;5.93;;;1.53;;
20832;SDS011;56075;51.264;7.150;2023-04-12T02:32:51;9.50;;;1.47;;
20832;SDS011;56075;51.264;7.150;2023-04-12T02:35:36;3.53;;;1.27;;
20832;SDS011;56075;51.264;7.150;2023-04-12T02:38:12;6.03;;;1.50;;
20832;SDS011;56075;51.264;7.150;2023-04-12T02:40:45;7.97;;;1.40;;
20832;SDS011;56075;51.264;7.150;2023-04-12T02:43:19;8.03;;;1.60;;
20832;SDS011;56075;51.264;7.150;2023-04-12T02:45:59;4.07;;;1.10;;
20832;SDS011;56075;51.264;7.150;2023-04-12T02:48:30;7.20;;;1.20;;
20832;SDS011;56075;51.264;7.150;2023-04-12T02:51:02;3.17;;;1.13;;
20832;SDS011;56075;51.264;7.150;2023-04-12T02:53:36;6.73;;;1.43;;
20832;SDS011;56075;51.264;7.150;2023-04-12T02:56:20;8.53;;;1.40;;
20832;SDS011;56075;51.264;7.150;2023-04-12T02:58:57;5.33;;;1.20;;
20832;SDS011;56075;51.264;7.150;2023-04-12T03:01:42;8.50;;;1.40;;
20832;SDS011;56075;51.264;7.150;2023-04-12T03:04:28;5.17;;;1.03;;
20832;SDS011;56075;51.264;7.150;2023-04-12T03:07:02;2.47;;;1.20;;
20832;SDS011;56075;51.264;7.150;2023-04-12T03:10:09;6.80;;;1.40;;
20832;SDS011;56075;51.264;7.150;2023-04-12T03:12:48;4.50;;;1.23;;
20832;SDS011;56075;51.264;7.150;2023-04-12T03:15:22;5.30;;;1.53;;
20832;SDS011;56075;51.264;7.150;2023-04-12T03:17:55;11.43;;;1.73;;
20832;SDS011;56075;51.264;7.150;2023-04-12T03:20:31;6.00;;;1.33;;
20832;SDS011;56075;51.264;7.150;2023-04-12T03:23:07;10.00;;;1.60;;
20832;SDS011;56075;51.264;7.150;2023-04-12T03:25:41;7.70;;;1.30;;
20832;SDS011;56075;51.264;7.150;2023-04-12T03:28:30;7.57;;;1.40;;
20832;SDS011;56075;51.264;7.150;2023-04-12T03:31:02;3.47;;;1.20;;
20832;SDS011;56075;51.264;7.150;2023-04-12T03:33:42;7.07;;;1.13;;
20832;SDS011;56075;51.264;7.150;2023-04-12T03:36:23;6.40;;;1.23;;
20832;SDS011;56075;51.264;7.150;2023-04-12T03:39:01;4.90;;;1.40;;
20832;SDS011;56075;51.264;7.150;2023-04-12T03:41:35;3.47;;;1.23;;
20832;SDS011;56075;51.264;7.150;2023-04-12T03:44:08;10.00;;;1.30;;
20832;SDS011;56075;51.264;7.150;2023-04-12T03:46:40;3.83;;;1.13;;
20832;SDS011;56075;51.264;7.150;2023-04-12T03:49:14;4.27;;;1.13;;
20832;SDS011;56075;51.264;7.150;2023-04-12T03:51:46;3.90;;;1.17;;
20832;SDS011;56075;51.264;7.150;2023-04-12T03:54:20;3.77;;;1.03;;
20832;SDS011;56075;51.264;7.150;2023-04-12T03:57:00;4.90;;;1.30;;
20832;SDS011;56075;51.264;7.150;2023-04-12T03:59:39;7.23;;;1.40;;
20832;SDS011;56075;51.264;7.150;2023-04-12T04:02:11;4.00;;;1.10;;
20832;SDS011;56075;51.264;7.150;2023-04-12T04:04:49;5.13;;;1.30;;
20832;SDS011;56075;51.264;7.150;2023-04-12T04:07:29;3.73;;;1.30;;
20832;SDS011;56075;51.264;7.150;2023-04-12T04:10:03;3.93;;;1.13;;
20832;SDS011;56075;51.264;7.150;2023-04-12T04:12:39;5.87;;;1.40;;
20832;SDS011;56075;51.264;7.150;2023-04-12T04:15:13;3.60;;;1.63;;
20832;SDS011;56075;51.264;7.150;2023-04-12T04:17:45;5.40;;;1.20;;
20832;SDS011;56075;51.264;7.150;2023-04-12T04:20:19;5.20;;;1.30;;
20832;SDS011;56075;51.264;7.150;2023-04-12T04:22:53;3.63;;;1.20;;
20832;SDS011;56075;51.264;7.150;2023-04-12T04:25:27;4.87;;;1.33;;
20832;SDS011;56075;51.264;7.150;2023-04-12T04:28:06;10.30;;;1.60;;
20832;SDS011;56075;51.264;7.150;2023-04-12T04:30:38;4.93;;;1.40;;
20832;SDS011;56075;51.264;7.150;2023-04-12T04:33:11;3.60;;;1.10;;
20832;SDS011;56075;51.264;7.150;2023-04-12T04:35:43;4.90;;;1.30;;
20832;SDS011;56075;51.264;7.150;2023-04-12T04:38:34;8.97;;;1.40;;
20832;SDS011;56075;51.264;7.150;2023-04-12T04:41:12;5.00;;;1.40;;
20832;SDS011;56075;51.264;7.150;2023-04-12T04:43:52;2.23;;;1.30;;
20832;SDS011;56075;51.264;7.150;2023-04-12T04:46:24;4.83;;;1.20;;
20832;SDS011;56075;51.264;7.150;2023-04-12T04:48:59;4.83;;;1.40;;
20832;SDS011;56075;51.264;7.150;2023-04-12T04:51:31;3.20;;;1.30;;
20832;SDS011;56075;51.264;7.150;2023-04-12T04:54:05;2.10;;;1.03;;
20832;SDS011;56075;51.264;7.150;2023-04-12T04:56:38;3.50;;;1.20;;
20832;SDS011;56075;51.264;7.150;2023-04-12T04:59:10;4.87;;;1.40;;
20832;SDS011;56075;51.264;7.150;2023-04-12T05:01:41;3.97;;;1.43;;
20832;SDS011;56075;51.264;7.150;2023-04-12T05:04:13;6.07;;;1.50;;
20832;SDS011;56075;51.264;7.150;2023-04-12T05:06:45;4.07;;;1.47;;
20832;SDS011;56075;51.264;7.150;2023-04-12T05:09:18;4.10;;;1.30;;
20832;SDS011;56075;51.264;7.150;2023-04-12T05:11:57;4.83;;;1.40;;
20832;SDS011;56075;51.264;7.150;2023-04-12T05:14:29;5.53;;;1.80;;
20832;SDS011;56075;51.264;7.150;2023-04-12T05:17:00;3.07;;;1.30;;
20832;SDS011;56075;51.264;7.150;2023-04-12T05:19:32;6.20;;;1.70;;
20832;SDS011;56075;51.264;7.150;2023-04-12T05:22:03;4.20;;;1.30;;
20832;SDS011;56075;51.264;7.150;2023-04-12T05:24:35;6.03;;;1.40;;
20832;SDS011;56075;51.264;7.150;2023-04-12T05:27:06;6.73;;;1.40;;
20832;SDS011;56075;51.264;7.150;2023-04-12T05:29:38;2.87;;;1.40;;
20832;SDS011;56075;51.264;7.150;2023-04-12T05:32:12;4.67;;;1.50;;
20832;SDS011;56075;51.264;7.150;2023-04-12T05:34:43;5.30;;;1.40;;
20832;SDS011;56075;51.264;7.150;2023-04-12T05:37:15;3.17;;;1.27;;
20832;SDS011;56075;51.264;7.150;2023-04-12T05:39:46;3.07;;;1.27;;
20832;SDS011;56075;51.264;7.150;2023-04-12T05:42:22;2.40;;;1.40;;
20832;SDS011;56075;51.264;7.150;2023-04-12T05:44:53;6.20;;;1.50;;
20832;SDS011;56075;51.264;7.150;2023-04-12T05:47:26;4.07;;;1.37;;
20832;SDS011;56075;51.264;7.150;2023-04-12T05:50:00;2.10;;;1.40;;
20832;SDS011;56075;51.264;7.150;2023-04-12T05:52:31;4.37;;;1.40;;
20832;SDS011;56075;51.264;7.150;2023-04-12T05:55:03;2.47;;;1.10;;
20832;SDS011;56075;51.264;7.150;2023-04-12T05:57:35;4.07;;;1.43;;
20832;SDS011;56075;51.264;7.150;2023-04-12T06:00:06;4.17;;;1.27;;
20832;SDS011;56075;51.264;7.150;2023-04-12T06:02:43;3.87;;;1.57;;
20832;SDS011;56075;51.264;7.150;2023-04-12T06:05:16;3.00;;;1.30;;
20832;SDS011;56075;51.264;7.150;2023-04-12T06:07:48;2.27;;;1.17;;
20832;SDS011;56075;51.264;7.150;2023-04-12T06:10:19;4.60;;;1.40;;
20832;SDS011;56075;51.264;7.150;2023-04-12T06:12:54;2.73;;;1.10;;
20832;SDS011;56075;51.264;7.150;2023-04-12T06:15:25;4.30;;;1.50;;
20832;SDS011;56075;51.264;7.150;2023-04-12T06:17:58;2.60;;;1.30;;
20832;SDS011;56075;51.264;7.150;2023-04-12T06:20:30;3.60;;;1.30;;
20832;SDS011;56075;51.264;7.150;2023-04-12T06:23:01;2.93;;;1.00;;
20832;SDS011;56075;51.264;7.150;2023-04-12T06:25:32;3.37;;;1.20;;
20832;SDS011;56075;51.264;7.150;2023-04-12T06:28:04;3.20;;;1.30;;
20832;SDS011;56075;51.264;7.150;2023-04-12T06:30:40;3.70;;;1.20;;
20832;SDS011;56075;51.264;7.150;2023-04-12T06:33:11;6.10;;;1.00;;
20832;SDS011;56075;51.264;7.150;2023-04-12T06:35:43;3.30;;;1.30;;
20832;SDS011;56075;51.264;7.150;2023-04-12T06:38:16;2.57;;;1.20;;
20832;SDS011;56075;51.264;7.150;2023-04-12T06:40:47;3.23;;;1.20;;
20832;SDS011;56075;51.264;7.150;2023-04-12T06:43:19;2.23;;;1.20;;
20832;SDS011;56075;51.264;7.150;2023-04-12T06:45:52;2.80;;;1.10;;
20832;SDS011;56075;51.264;7.150;2023-04-12T06:48:23;1.63;;;1.10;;
20832;SDS011;56075;51.264;7.150;2023-04-12T06:50:55;3.00;;;1.03;;
20832;SDS011;56075;51.264;7.150;2023-04-12T06:53:26;1.50;;;1.10;;
20832;SDS011;56075;51.264;7.150;2023-04-12T06:55:57;5.60;;;1.37;;
20832;SDS011;56075;51.264;7.150;2023-04-12T06:58:33;1.80;;;1.00;;
20832;SDS011;56075;51.264;7.150;2023-04-12T07:01:07;3.17;;;1.20;;
20832;SDS011;56075;51.264;7.150;2023-04-12T07:03:43;3.27;;;0.90;;
20832;SDS011;56075;51.264;7.150;2023-04-12T07:06:15;2.97;;;0.90;;
20832;SDS011;56075;51.264;7.150;2023-04-12T07:08:46;1.07;;;0.80;;
20832;SDS011;56075;51.264;7.150;2023-04-12T07:11:17;2.23;;;0.93;;
20832;SDS011;56075;51.264;7.150;2023-04-12T07:13:49;2.13;;;1.10;;
20832;SDS011;56075;51.264;7.150;2023-04-12T07:16:21;2.17;;;0.80;;
20832;SDS011;56075;51.264;7.150;2023-04-12T07:18:52;2.00;;;0.80;;
20832;SDS011;56075;51.264;7.150;2023-04-12T07:21:24;1.90;;;0.87;;
20832;SDS011;56075;51.264;7.150;2023-04-12T07:23:56;2.10;;;1.03;;
20832;SDS011;56075;51.264;7.150;2023-04-12T07:26:28;1.50;;;0.80;;
20832;SDS011;56075;51.264;7.150;2023-04-12T07:29:00;2.10;;;1.10;;
20832;SDS011;56075;51.264;7.150;2023-04-12T07:31:32;1.43;;;0.80;;
20832;SDS011;56075;51.264;7.150;2023-04-12T07:34:04;1.87;;;0.87;;
20832;SDS011;56075;51.264;7.150;2023-04-12T07:36:35;1.50;;;0.80;;
20832;SDS011;56075;51.264;7.150;2023-04-12T07:39:07;2.50;;;0.90;;
20832;SDS011;56075;51.264;7.150;2023-04-12T07:41:41;1.80;;;0.90;;
20832;SDS011;56075;51.264;7.150;2023-04-12T07:44:18;3.03;;;0.97;;
20832;SDS011;56075;51.264;7.150;2023-04-12T07:47:09;2.23;;;0.90;;
20832;SDS011;56075;51.264;7.150;2023-04-12T07:49:40;1.20;;;0.70;;
20832;SDS011;56075;51.264;7.150;2023-04-12T07:52:11;1.40;;;0.70;;
20832;SDS011;56075;51.264;7.150;2023-04-12T07:54:43;1.23;;;0.77;;
20832;SDS011;56075;51.264;7.150;2023-04-12T07:57:14;1.60;;;1.00;;
20832;SDS011;56075;51.264;7.150;2023-04-12T07:59:45;3.20;;;1.10;;
20832;SDS011;56075;51.264;7.150;2023-04-12T08:02:17;1.60;;;0.90;;
20832;SDS011;56075;51.264;7.150;2023-04-12T08:04:54;2.53;;;1.00;;
20832;SDS011;56075;51.264;7.150;2023-04-12T08:07:25;2.13;;;1.07;;
20832;SDS011;56075;51.264;7.150;2023-04-12T08:09:57;2.00;;;0.87;;
20832;SDS011;56075;51.264;7.150;2023-04-12T08:12:28;1.77;;;0.80;;
20832;SDS011;56075;51.264;7.150;2023-04-12T08:15:00;1.33;;;0.60;;
20832;SDS011;56075;51.264;7.150;2023-04-12T08:17:31;2.40;;;0.93;;
20832;SDS011;56075;51.264;7.150;2023-04-12T08:20:03;0.93;;;0.70;;
20832;SDS011;56075;51.264;7.150;2023-04-12T08:22:34;1.80;;;0.80;;
20832;SDS011;56075;51.264;7.150;2023-04-12T08:25:05;1.27;;;0.80;;
20832;SDS011;56075;51.264;7.150;2023-04-12T08:27:40;3.17;;;1.10;;
20832;SDS011;56075;51.264;7.150;2023-04-12T08:30:13;1.30;;;0.80;;
20832;SDS011;56075;51.264;7.150;2023-04-12T08:32:49;2.87;;;1.10;;
20832;SDS011;56075;51.264;7.150;2023-04-12T08:35:21;2.57;;;0.90;;
20832;SDS011;56075;51.264;7.150;2023-04-12T08:37:53;1.17;;;0.60;;
20832;SDS011;56075;51.264;7.150;2023-04-12T08:40:25;1.43;;;0.80;;
20832;SDS011;56075;51.264;7.150;2023-04-12T08:42:56;3.07;;;0.97;;
20832;SDS011;56075;51.264;7.150;2023-04-12T08:45:32;1.60;;;0.93;;
20832;SDS011;56075;51.264;7.150;2023-04-12T08:48:05;1.10;;;0.90;;
20832;SDS011;56075;51.264;7.150;2023-04-12T08:50:37;1.50;;;0.80;;
20832;SDS011;56075;51.264;7.150;2023-04-12T08:53:09;2.30;;;0.90;;
20832;SDS011;56075;51.264;7.150;2023-04-12T08:55:43;2.53;;;1.00;;
20832;SDS011;56075;51.264;7.150;2023-04-12T08:58:15;1.20;;;0.87;;
20832;SDS011;56075;51.264;7.150;2023-04-12T09:00:46;1.40;;;0.90;;
20832;SDS011;56075;51.264;7.150;2023-04-12T09:03:18;2.37;;;1.00;;
20832;SDS011;56075;51.264;7.150;2023-04-12T09:05:49;2.40;;;0.80;;
20832;SDS011;56075;51.264;7.150;2023-04-12T09:08:20;1.67;;;0.80;;
20832;SDS011;56075;51.264;7.150;2023-04-12T09:10:51;2.00;;;0.97;;
20832;SDS011;56075;51.264;7.150;2023-04-12T09:13:30;1.80;;;1.00;;
20832;SDS011;56075;51.264;7.150;2023-04-12T09:16:02;2.10;;;0.63;;
20832;SDS011;56075;51.264;7.150;2023-04-12T09:18:46;1.20;;;0.70;;
20832;SDS011;56075;51.264;7.150;2023-04-12T09:21:21;3.60;;;1.00;;
20832;SDS011;56075;51.264;7.150;2023-04-12T09:26:32;1.97;;;0.87;;
20832;SDS011;56075;51.264;7.150;2023-04-12T09:29:04;1.90;;;0.90;;
20832;SDS011;56075;51.264;7.150;2023-04-12T09:31:36;1.90;;;1.00;;
20832;SDS011;56075;51.264;7.150;2023-04-12T09:34:07;2.92;;;1.02;;
20832;SDS011;56075;51.264;7.150;2023-04-12T09:36:39;5.07;;;1.40;;
20832;SDS011;56075;51.264;7.150;2023-04-12T09:39:10;2.80;;;1.00;;
20832;SDS011;56075;51.264;7.150;2023-04-12T09:41:42;2.17;;;0.77;;
20832;SDS011;56075;51.264;7.150;2023-04-12T09:44:28;1.70;;;0.70;;
20832;SDS011;56075;51.264;7.150;2023-04-12T09:47:00;1.37;;;0.90;;
20832;SDS011;56075;51.264;7.150;2023-04-12T09:49:35;1.07;;;0.70;;
20832;SDS011;56075;51.264;7.150;2023-04-12T09:52:09;1.43;;;0.70;;
20832;SDS011;56075;51.264;7.150;2023-04-12T09:54:43;0.80;;;0.60;;
20832;SDS011;56075;51.264;7.150;2023-04-12T09:57:18;1.00;;;0.60;;
20832;SDS011;56075;51.264;7.150;2023-04-12T09:59:52;1.10;;;0.70;;
20832;SDS011;56075;51.264;7.150;2023-04-12T10:02:29;0.70;;;0.60;;
20832;SDS011;56075;51.264;7.150;2023-04-12T10:05:00;0.55;;;0.50;;
20832;SDS011;56075;51.264;7.150;2023-04-12T10:07:34;2.70;;;0.80;;
20832;SDS011;56075;51.264;7.150;2023-04-12T10:10:07;1.35;;;0.70;;
20832;SDS011;56075;51.264;7.150;2023-04-12T10:12:44;1.52;;;0.60;;
20832;SDS011;56075;51.264;7.150;2023-04-12T10:15:16;1.42;;;0.65;;
20832;SDS011;56075;51.264;7.150;2023-04-12T10:17:51;1.30;;;0.63;;
20832;SDS011;56075;51.264;7.150;2023-04-12T10:20:24;1.30;;;0.50;;
20832;SDS011;56075;51.264;7.150;2023-04-12T10:22:55;0.60;;;0.50;;
20832;SDS011;56075;51.264;7.150;2023-04-12T10:25:29;1.27;;;0.52;;
20832;SDS011;56075;51.264;7.150;2023-04-12T10:28:14;1.25;;;0.50;;
20832;SDS011;56075;51.264;7.150;2023-04-12T10:30:50;1.10;;;0.60;;
20832;SDS011;56075;51.264;7.150;2023-04-12T10:33:28;0.63;;;0.63;;
20832;SDS011;56075;51.264;7.150;2023-04-12T10:36:03;2.22;;;0.80;;
20832;SDS011;56075;51.264;7.150;2023-04-12T10:38:44;0.95;;;0.75;;
20832;SDS011;56075;51.264;7.150;2023-04-12T10:43:51;1.42;;;0.80;;
20832;SDS011;56075;51.264;7.150;2023-04-12T10:49:13;1.25;;;0.90;;
20832;SDS011;56075;51.264;7.150;2023-04-12T10:54:47;1.65;;;1.08;;
20832;SDS011;56075;51.264;7.150;2023-04-12T10:57:42;2.33;;;1.10;;
20832;SDS011;56075;51.264;7.150;2023-04-12T11:00:14;1.75;;;1.17;;
20832;SDS011;56075;51.264;7.150;2023-04-12T11:03:19;2.97;;;1.27;;
20832;SDS011;56075;51.264;7.150;2023-04-12T11:06:02;2.00;;;1.23;;
20832;SDS011;56075;51.264;7.150;2023-04-12T11:08:54;3.35;;;1.52;;
20832;SDS011;56075;51.264;7.150;2023-04-12T11:11:26;6.25;;;2.92;;
20832;SDS011;56075;51.264;7.150;2023-04-12T11:13:58;3.95;;;1.70;;
20832;SDS011;56075;51.264;7.150;2023-04-12T11:16:29;2.70;;;1.65;;
20832;SDS011;56075;51.264;7.150;2023-04-12T11:19:00;4.05;;;1.80;;
20832;SDS011;56075;51.264;7.150;2023-04-12T11:21:31;4.32;;;1.90;;
20832;SDS011;56075;51.264;7.150;2023-04-12T11:24:03;3.77;;;1.97;;
20832;SDS011;56075;51.264;7.150;2023-04-12T11:26:35;4.27;;;1.93;;
20832;SDS011;56075;51.264;7.150;2023-04-12T11:29:07;3.10;;;2.10;;
20832;SDS011;56075;51.264;7.150;2023-04-12T11:31:42;5.50;;;2.28;;
20832;SDS011;56075;51.264;7.150;2023-04-12T11:34:14;3.83;;;2.40;;
20832;SDS011;56075;51.264;7.150;2023-04-12T11:36:50;3.67;;;2.60;;
20832;SDS011;56075;51.264;7.150;2023-04-12T11:39:22;7.72;;;2.92;;
20832;SDS011;56075;51.264;7.150;2023-04-12T11:41:56;4.25;;;2.33;;
20832;SDS011;56075;51.264;7.150;2023-04-12T11:44:28;3.83;;;2.45;;
20832;SDS011;56075;51.264;7.150;2023-04-12T11:47:02;3.80;;;2.40;;
20832;SDS011;56075;51.264;7.150;2023-04-12T11:49:34;4.35;;;2.33;;
20832;SDS011;56075;51.264;7.150;2023-04-12T11:52:06;3.88;;;2.53;;
20832;SDS011;56075;51.264;7.150;2023-04-12T11:54:40;4.07;;;2.22;;
20832;SDS011;56075;51.264;7.150;2023-04-12T11:57:14;5.53;;;2.53;;
20832;SDS011;56075;51.264;7.150;2023-04-12T11:59:47;5.90;;;2.50;;
20832;SDS011;56075;51.264;7.150;2023-04-12T12:02:18;6.20;;;2.30;;
20832;SDS011;56075;51.264;7.150;2023-04-12T12:04:50;5.32;;;2.47;;
20832;SDS011;56075;51.264;7.150;2023-04-12T12:07:22;4.97;;;2.33;;
20832;SDS011;56075;51.264;7.150;2023-04-12T12:09:54;5.55;;;2.70;;
20832;SDS011;56075;51.264;7.150;2023-04-12T12:12:26;6.90;;;2.85;;
20832;SDS011;56075;51.264;7.150;2023-04-12T12:14:58;5.13;;;2.55;;
20832;SDS011;56075;51.264;7.150;2023-04-12T12:17:30;5.78;;;2.38;;
20832;SDS011;56075;51.264;7.150;2023-04-12T12:20:17;5.53;;;2.17;;
20832;SDS011;56075;51.264;7.150;2023-04-12T12:22:50;5.38;;;2.00;;
20832;SDS011;56075;51.264;7.150;2023-04-12T12:25:21;4.72;;;2.20;;
20832;SDS011;56075;51.264;7.150;2023-04-12T12:27:55;5.63;;;2.63;;
20832;SDS011;56075;51.264;7.150;2023-04-12T12:30:27;5.43;;;2.40;;
20832;SDS011;56075;51.264;7.150;2023-04-12T12:33:00;6.43;;;2.30;;
20832;SDS011;56075;51.264;7.150;2023-04-12T12:35:33;4.47;;;2.00;;
20832;SDS011;56075;51.264;7.150;2023-04-12T12:38:05;5.18;;;1.85;;
20832;SDS011;56075;51.264;7.150;2023-04-12T12:40:38;9.68;;;2.25;;
20832;SDS011;56075;51.264;7.150;2023-04-12T12:43:15;4.75;;;2.30;;
20832;SDS011;56075;51.264;7.150;2023-04-12T12:45:50;4.72;;;2.20;;
20832;SDS011;56075;51.264;7.150;2023-04-12T12:48:21;7.35;;;2.13;;
20832;SDS011;56075;51.264;7.150;2023-04-12T12:50:52;4.38;;;1.95;;
20832;SDS011;56075;51.264;7.150;2023-04-12T12:53:23;6.50;;;2.10;;
20832;SDS011;56075;51.264;7.150;2023-04-12T12:55:54;2.75;;;1.70;;
20832;SDS011;56075;51.264;7.150;2023-04-12T12:58:26;2.67;;;1.40;;
20832;SDS011;56075;51.264;7.150;2023-04-12T13:00:57;4.35;;;1.52;;
20832;SDS011;56075;51.264;7.150;2023-04-12T13:03:28;3.92;;;1.52;;
20832;SDS011;56075;51.264;7.150;2023-04-12T13:06:00;6.05;;;1.48;;
20832;SDS011;56075;51.264;7.150;2023-04-12T13:08:31;6.28;;;2.22;;
20832;SDS011;56075;51.264;7.150;2023-04-12T13:11:05;5.68;;;1.67;;
20832;SDS011;56075;51.264;7.150;2023-04-12T13:13:36;3.65;;;1.27;;
20832;SDS011;56075;51.264;7.150;2023-04-12T13:16:07;7.18;;;1.48;;
20832;SDS011;56075;51.264;7.150;2023-04-12T13:18:39;5.20;;;1.38;;
20832;SDS011;56075;51.264;7.150;2023-04-12T13:21:10;4.25;;;1.50;;
20832;SDS011;56075;51.264;7.150;2023-04-12T13:23:41;4.13;;;1.50;;
20832;SDS011;56075;51.264;7.150;2023-04-12T13:26:12;5.60;;;1.48;;
20832;SDS011;56075;51.264;7.150;2023-04-12T13:28:43;6.15;;;1.65;;
20832;SDS011;56075;51.264;7.150;2023-04-12T13:31:15;5.90;;;1.70;;
20832;SDS011;56075;51.264;7.150;2023-04-12T13:33:46;7.43;;;1.90;;
20832;SDS011;56075;51.264;7.150;2023-04-12T13:36:17;5.75;;;1.40;;
20832;SDS011;56075;51.264;7.150;2023-04-12T13:38:48;7.50;;;1.70;;
20832;SDS011;56075;51.264;7.150;2023-04-12T13:41:19;4.05;;;1.55;;
20832;SDS011;56075;51.264;7.150;2023-04-12T13:43:50;6.68;;;2.08;;
20832;SDS011;56075;51.264;7.150;2023-04-12T13:46:22;4.80;;;1.40;;
20832;SDS011;56075;51.264;7.150;2023-04-12T13:48:53;4.28;;;1.70;;
20832;SDS011;56075;51.264;7.150;2023-04-12T13:51:24;3.67;;;1.48;;
20832;SDS011;56075;51.264;7.150;2023-04-12T13:53:59;7.07;;;1.50;;
20832;SDS011;56075;51.264;7.150;2023-04-12T13:56:31;4.82;;;1.50;;
20832;SDS011;56075;51.264;7.150;2023-04-12T13:59:03;5.70;;;1.63;;
20832;SDS011;56075;51.264;7.150;2023-04-12T14:01:34;9.25;;;1.90;;
20832;SDS011;56075;51.264;7.150;2023-04-12T14:04:05;7.97;;;1.55;;
20832;SDS011;56075;51.264;7.150;2023-04-12T14:06:37;7.43;;;1.60;;
20832;SDS011;56075;51.264;7.150;2023-04-12T14:09:08;7.05;;;1.80;;
20832;SDS011;56075;51.264;7.150;2023-04-12T14:11:46;5.38;;;1.60;;
20832;SDS011;56075;51.264;7.150;2023-04-12T14:14:17;6.28;;;2.08;;
20832;SDS011;56075;51.264;7.150;2023-04-12T14:16:49;7.00;;;1.50;;
20832;SDS011;56075;51.264;7.150;2023-04-12T14:19:23;10.57;;;1.60;;
20832;SDS011;56075;51.264;7.150;2023-04-12T14:21:54;7.90;;;1.67;;
20832;SDS011;56075;51.264;7.150;2023-04-12T14:24:26;11.13;;;1.70;;
20832;SDS011;56075;51.264;7.150;2023-04-12T14:26:57;8.50;;;1.92;;
20832;SDS011;56075;51.264;7.150;2023-04-12T14:29:30;7.78;;;1.40;;
20832;SDS011;56075;51.264;7.150;2023-04-12T14:32:02;7.32;;;1.42;;
20832;SDS011;56075;51.264;7.150;2023-04-12T14:34:33;8.95;;;1.60;;
20832;SDS011;56075;51.264;7.150;2023-04-12T14:37:07;8.60;;;1.40;;
20832;SDS011;56075;51.264;7.150;2023-04-12T14:39:39;7.20;;;1.33;;
20832;SDS011;56075;51.264;7.150;2023-04-12T14:42:10;4.25;;;0.90;;
20832;SDS011;56075;51.264;7.150;2023-04-12T14:44:41;5.97;;;1.02;;
20832;SDS011;56075;51.264;7.150;2023-04-12T14:47:12;3.50;;;0.60;;
20832;SDS011;56075;51.264;7.150;2023-04-12T14:49:43;3.30;;;0.80;;
20832;SDS011;56075;51.264;7.150;2023-04-12T14:52:14;5.77;;;1.00;;
20832;SDS011;56075;51.264;7.150;2023-04-12T14:54:46;3.00;;;0.80;;
20832;SDS011;56075;51.264;7.150;2023-04-12T14:57:17;2.50;;;0.60;;
20832;SDS011;56075;51.264;7.150;2023-04-12T14:59:49;2.43;;;0.90;;
20832;SDS011;56075;51.264;7.150;2023-04-12T15:02:20;4.57;;;1.60;;
20832;SDS011;56075;51.264;7.150;2023-04-12T15:04:51;2.90;;;0.70;;
20832;SDS011;56075;51.264;7.150;2023-04-12T15:07:22;5.37;;;1.17;;
20832;SDS011;56075;51.264;7.150;2023-04-12T15:09:53;4.00;;;1.00;;
20832;SDS011;56075;51.264;7.150;2023-04-12T15:12:27;5.77;;;1.27;;
20832;SDS011;56075;51.264;7.150;2023-04-12T15:14:58;3.43;;;1.00;;
20832;SDS011;56075;51.264;7.150;2023-04-12T15:17:32;4.03;;;1.10;;
20832;SDS011;56075;51.264;7.150;2023-04-12T15:20:06;4.00;;;1.10;;
20832;SDS011;56075;51.264;7.150;2023-04-12T15:22:42;6.30;;;1.03;;
20832;SDS011;56075;51.264;7.150;2023-04-12T15:25:13;6.60;;;1.70;;
20832;SDS011;56075;51.264;7.150;2023-04-12T15:27:44;5.78;;;1.10;;
20832;SDS011;56075;51.264;7.150;2023-04-12T15:30:15;3.30;;;0.98;;
20832;SDS011;56075;51.264;7.150;2023-04-12T15:32:47;3.80;;;1.00;;
20832;SDS011;56075;51.264;7.150;2023-04-12T15:35:18;4.82;;;0.95;;
20832;SDS011;56075;51.264;7.150;2023-04-12T15:37:49;2.88;;;0.82;;
20832;SDS011;56075;51.264;7.150;2023-04-12T15:40:22;3.45;;;1.05;;
20832;SDS011;56075;51.264;7.150;2023-04-12T15:42:53;7.43;;;1.15;;
20832;SDS011;56075;51.264;7.150;2023-04-12T15:45:25;7.53;;;1.08;;
20832;SDS011;56075;51.264;7.150;2023-04-12T15:47:56;2.90;;;1.20;;
20832;SDS011;56075;51.264;7.150;2023-04-12T15:50:28;5.32;;;1.10;;
20832;SDS011;56075;51.264;7.150;2023-04-12T15:52:59;3.28;;;1.25;;